Time;durP1;ratioP1;P1;durP2;ratioP2;P2;SDS_P1;SDS_P2;PMS_P1;PMS_P2;Temp;Humidity;BMP_temperature;BMP_pressure;BME280_temperature;BME280_humidity;BME280_pressure;Samples;Min_cycle;Max_cycle;Signal;HPM_P1;HPM_P2
2022/09/15 00:02:09;;;;;;;3.35;1.73;;;;;;;18.09;54.14;93814.78;5146145;27;20069;-72
2022/09/15 00:04:35;;;;;;;3.33;1.75;;;;;;;18.06;53.75;93814.75;5146249;27;20266;-72
2022/09/15 00:07:00;;;;;;;8.07;1.98;;;;;;;18.00;53.87;93806.16;5145854;27;20027;-72
2022/09/15 00:09:26;;;;;;;7.90;1.88;;;;;;;18.05;54.34;93813.94;5145755;27;20081;-71
2022/09/15 00:11:51;;;;;;;3.10;1.60;;;;;;;18.05;54.76;93813.94;5145923;27;20030;-71
2022/09/15 00:14:17;;;;;;;3.13;1.55;;;;;;;17.98;54.90;93808.44;5145920;27;20042;-72
2022/09/15 00:16:42;;;;;;;5.97;2.33;;;;;;;17.99;54.98;93812.69;5145917;27;20019;-71
2022/09/15 00:19:08;;;;;;;4.50;1.77;;;;;;;17.96;54.16;93824.22;5145777;27;20011;-72
2022/09/15 00:21:37;;;;;;;4.70;1.83;;;;;;;17.85;53.87;93810.56;5145034;27;20019;-72
2022/09/15 00:24:03;;;;;;;6.40;2.05;;;;;;;17.83;55.80;93820.94;5145547;27;20026;-72
2022/09/15 00:26:30;;;;;;;5.45;1.77;;;;;;;17.77;54.95;93820.41;5145702;27;20341;-72
2022/09/15 00:28:57;;;;;;;3.78;1.70;;;;;;;17.74;54.93;93804.94;5145565;27;20038;-72
2022/09/15 00:31:24;;;;;;;5.53;2.08;;;;;;;17.72;55.39;93822.63;5145442;27;20023;-73
2022/09/15 00:33:58;;;;;;;5.15;1.80;;;;;;;17.64;55.36;93825.16;5145345;27;20026;-72
2022/09/15 00:36:25;;;;;;;5.60;2.05;;;;;;;17.67;56.10;93821.00;5145358;27;20086;-72
2022/09/15 00:38:51;;;;;;;6.68;1.85;;;;;;;17.67;56.61;93810.22;5145323;27;20030;-72
2022/09/15 00:41:19;;;;;;;5.15;2.15;;;;;;;17.64;56.72;93817.09;5145338;27;20023;-72
2022/09/15 00:43:47;;;;;;;4.03;1.83;;;;;;;17.55;57.02;93813.84;5145348;27;20027;-73
2022/09/15 00:46:14;;;;;;;3.97;2.03;;;;;;;17.54;56.94;93816.91;5145324;27;20027;-72
2022/09/15 00:49:15;;;;;;;6.97;1.88;;;;;;;17.50;57.04;93810.69;5145201;27;20101;-72
2022/09/15 00:51:46;;;;;;;4.60;1.77;;;;;;;17.51;56.96;93817.63;5144697;27;20039;-72
2022/09/15 00:54:28;;;;;;;7.53;2.10;;;;;;;17.43;57.26;93814.81;5145104;27;20019;-72
2022/09/15 00:56:57;;;;;;;6.30;2.20;;;;;;;17.42;56.91;93815.16;5145018;27;20023;-72
2022/09/15 00:59:25;;;;;;;10.18;2.35;;;;;;;17.39;55.94;93816.66;5145015;27;20026;-72
2022/09/15 01:01:57;;;;;;;5.43;2.20;;;;;;;17.42;55.96;93818.66;5144762;27;20060;-72
2022/09/15 01:04:23;;;;;;;4.45;1.85;;;;;;;17.40;56.15;93818.22;5144838;27;20023;-72
2022/09/15 01:06:57;;;;;;;6.15;1.90;;;;;;;17.39;55.94;93813.94;5144820;27;20034;-72
2022/09/15 01:09:35;;;;;;;7.68;2.13;;;;;;;17.38;55.45;93812.41;5144652;27;20047;-72
2022/09/15 01:12:01;;;;;;;5.20;1.90;;;;;;;17.40;56.28;93818.22;5144899;27;20090;-72
2022/09/15 01:14:26;;;;;;;6.80;2.60;;;;;;;17.34;56.17;93806.19;5144740;27;20392;-72
2022/09/15 01:17:05;;;;;;;8.38;2.00;;;;;;;17.34;56.31;93814.25;5144624;27;20033;-72
2022/09/15 01:19:50;;;;;;;4.18;2.22;;;;;;;17.32;56.60;93799.56;5144375;27;20030;-72
2022/09/15 01:22:39;;;;;;;7.93;1.85;;;;;;;17.31;56.42;93814.97;5144602;27;20026;-73
2022/09/15 01:25:13;;;;;;;4.55;1.92;;;;;;;17.29;56.56;93806.44;5144549;27;20198;-72
2022/09/15 01:28:13;;;;;;;4.47;2.25;;;;;;;17.24;56.68;93804.06;5144485;27;20018;-71
2022/09/15 01:30:42;;;;;;;6.10;2.38;;;;;;;17.23;56.80;93818.66;5144385;27;20026;-72
2022/09/15 01:33:08;;;;;;;5.63;2.38;;;;;;;17.24;56.97;93812.91;5144360;27;20034;-72
2022/09/15 01:35:39;;;;;;;4.88;2.20;;;;;;;17.16;56.83;93805.84;5144416;27;20027;-72
2022/09/15 01:38:38;;;;;;;8.95;2.78;;;;;;;17.17;56.37;93814.69;5144151;27;20058;-72
2022/09/15 01:41:17;;;;;;;5.82;2.35;;;;;;;17.15;56.18;93798.09;5144126;27;20059;-72
2022/09/15 01:44:08;;;;;;;6.70;2.25;;;;;;;17.18;56.89;93800.09;5144247;27;20019;-72
2022/09/15 01:46:45;;;;;;;9.02;2.35;;;;;;;17.12;56.98;93802.28;5106793;27;20109;-72
2022/09/15 01:49:14;;;;;;;9.25;1.90;;;;;;;17.11;56.56;93802.66;5143940;27;20098;-71
2022/09/15 01:51:44;;;;;;;10.93;2.42;;;;;;;17.07;56.12;93799.88;5144076;27;20046;-71
2022/09/15 01:54:11;;;;;;;7.15;2.15;;;;;;;17.15;56.80;93803.50;5143888;27;20034;-71
2022/09/15 01:56:37;;;;;;;3.65;2.10;;;;;;;17.12;56.47;93790.75;5143800;27;20151;-71
2022/09/15 01:59:04;;;;;;;9.85;2.03;;;;;;;17.12;56.08;93806.91;5143966;27;20019;-71
2022/09/15 02:01:43;;;;;;;5.60;2.28;;;;;;;17.13;55.41;93793.06;5143889;27;20148;-71
2022/09/15 02:04:17;;;;;;;7.18;1.85;;;;;;;17.18;55.20;93789.34;5143716;27;20124;-71
2022/09/15 02:06:54;;;;;;;6.22;2.50;;;;;;;17.22;54.92;93782.09;5144025;27;20062;-71
2022/09/15 02:09:27;;;;;;;6.95;1.80;;;;;;;17.26;54.52;93785.63;5143411;27;20043;-72
2022/09/15 02:12:25;;;;;;;4.03;1.80;;;;;;;17.35;54.35;93791.56;5143767;27;20047;-71
2022/09/15 02:15:09;;;;;;;8.02;1.92;;;;;;;17.38;54.16;93779.28;5136986;27;20278;-71
2022/09/15 02:17:41;;;;;;;6.88;2.33;;;;;;;17.44;53.51;93777.84;5143395;27;20190;-71
2022/09/15 02:20:19;;;;;;;8.65;2.33;;;;;;;17.51;53.41;93793.38;5143144;27;20094;-72
2022/09/15 02:22:56;;;;;;;5.28;1.90;;;;;;;17.51;54.06;93796.09;5143774;27;20069;-71
2022/09/15 02:25:35;;;;;;;5.90;2.42;;;;;;;17.41;54.36;93797.44;5143664;28;20031;-71
2022/09/15 02:28:07;;;;;;;7.65;2.42;;;;;;;17.34;54.95;93803.50;5143738;28;20779;-71
2022/09/15 02:30:45;;;;;;;4.88;1.95;;;;;;;17.29;54.87;93782.22;5143533;28;20043;-75
2022/09/15 02:33:44;;;;;;;5.28;2.10;;;;;;;17.27;55.59;93772.94;5143658;27;20033;-73
2022/09/15 02:36:12;;;;;;;9.77;2.53;;;;;;;17.22;56.68;93774.03;5143671;27;20090;-72
2022/09/15 02:38:42;;;;;;;8.15;3.35;;;;;;;17.11;55.65;93784.56;5143229;28;20026;-72
2022/09/15 02:41:08;;;;;;;9.45;2.28;;;;;;;17.10;55.88;93777.63;5143192;27;20015;-71
2022/09/15 02:43:42;;;;;;;11.57;2.10;;;;;;;17.07;56.58;93777.56;5143363;27;20106;-70
2022/09/15 02:46:08;;;;;;;5.00;2.15;;;;;;;17.05;56.32;93781.38;5147477;27;20042;-71
2022/09/15 02:48:34;;;;;;;10.30;2.47;;;;;;;17.04;56.52;93784.44;5129061;27;20309;-70
2022/09/15 02:51:00;;;;;;;8.88;2.22;;;;;;;17.02;56.03;93781.34;5147430;27;20019;-71
2022/09/15 02:53:25;;;;;;;8.65;2.28;;;;;;;17.01;56.09;93780.53;5147415;27;20042;-71
2022/09/15 02:55:51;;;;;;;7.65;1.85;;;;;;;17.06;56.15;93782.19;5147244;27;20225;-70
2022/09/15 02:58:17;;;;;;;8.15;2.30;;;;;;;17.05;55.52;93781.38;5147327;27;20023;-70
2022/09/15 03:00:43;;;;;;;6.35;2.00;;;;;;;17.09;55.89;93781.44;5147368;27;20049;-70
2022/09/15 03:03:09;;;;;;;8.23;2.20;;;;;;;17.07;56.49;93777.56;5147171;27;20042;-71
2022/09/15 03:05:34;;;;;;;7.18;2.42;;;;;;;17.02;55.59;93776.72;5129089;27;20114;-71
2022/09/15 03:08:01;;;;;;;4.68;2.30;;;;;;;17.03;55.32;93772.88;5146979;27;20039;-71
2022/09/15 03:10:26;;;;;;;8.80;2.30;;;;;;;17.03;56.06;93783.66;5147121;27;20080;-73
2022/09/15 03:12:53;;;;;;;8.88;2.15;;;;;;;17.01;56.24;93780.53;5147063;27;20309;-72
2022/09/15 03:15:22;;;;;;;9.70;2.10;;;;;;;17.01;56.05;93791.31;5147306;27;20015;-72
2022/09/15 03:17:49;;;;;;;7.75;2.30;;;;;;;17.01;56.11;93796.69;5147272;27;20213;-71
2022/09/15 03:20:18;;;;;;;7.55;2.20;;;;;;;17.01;56.06;93802.06;5147204;27;20208;-71
2022/09/15 03:22:44;;;;;;;10.85;2.30;;;;;;;17.00;55.46;93814.00;5146971;27;20123;-71
2022/09/15 03:25:10;;;;;;;6.55;2.17;;;;;;;16.99;56.48;93823.19;5146893;27;20094;-72
2022/09/15 03:27:36;;;;;;;11.77;2.85;;;;;;;16.99;57.15;93822.41;5146978;27;20018;-72
2022/09/15 03:30:04;;;;;;;4.97;2.08;;;;;;;16.89;57.11;93817.59;5146514;27;20016;-73
2022/09/15 03:32:30;;;;;;;5.82;2.35;;;;;;;16.84;57.35;93811.34;5146885;27;20022;-72
2022/09/15 03:34:56;;;;;;;12.45;2.45;;;;;;;16.83;57.95;93823.28;5146808;27;20014;-72
2022/09/15 03:37:21;;;;;;;7.63;2.45;;;;;;;16.80;57.89;93812.41;5146685;27;20015;-72
2022/09/15 03:39:47;;;;;;;8.68;2.20;;;;;;;16.75;57.71;93815.34;5146693;27;20308;-72
2022/09/15 03:42:19;;;;;;;6.22;2.55;;;;;;;16.74;57.70;93813.81;5146843;27;20015;-72
2022/09/15 03:44:45;;;;;;;19.88;4.13;;;;;;;16.72;58.53;93816.06;5146628;27;20335;-73
2022/09/15 03:47:10;;;;;;;4.38;2.00;;;;;;;16.69;58.52;93814.06;5146527;27;20047;-73
2022/09/15 03:49:36;;;;;;;8.15;2.72;;;;;;;16.64;58.46;93815.91;5146162;27;20098;-72
2022/09/15 03:52:01;;;;;;;11.00;2.60;;;;;;;16.59;58.31;93808.13;5146483;27;20060;-71
2022/09/15 03:54:27;;;;;;;11.10;2.50;;;;;;;16.52;58.45;93797.19;5146351;27;20282;-71
2022/09/15 03:56:57;;;;;;;6.00;2.20;;;;;;;16.50;58.92;93809.44;5144964;27;20019;-72
2022/09/15 03:59:22;;;;;;;7.22;2.65;;;;;;;16.45;59.13;93797.84;5146492;27;20210;-72
2022/09/15 04:01:49;;;;;;;6.85;2.90;;;;;;;16.42;59.25;93803.94;5146378;27;20030;-73
2022/09/15 04:04:15;;;;;;;3.50;2.38;;;;;;;16.39;58.61;93810.00;5146401;27;20047;-71
2022/09/15 04:06:40;;;;;;;11.07;2.63;;;;;;;16.36;58.51;93812.59;5146052;27;20061;-71
2022/09/15 04:09:06;;;;;;;8.05;2.40;;;;;;;16.37;57.70;93809.56;5145961;27;20063;-71
2022/09/15 04:11:32;;;;;;;4.57;2.13;;;;;;;16.37;58.44;93820.31;5146155;27;20023;-73
2022/09/15 04:13:58;;;;;;;3.10;1.92;;;;;;;16.37;58.29;93819.56;5146076;27;20033;-70
2022/09/15 04:16:26;;;;;;;8.07;2.90;;;;;;;16.34;57.88;93821.00;5145572;27;20087;-73
2022/09/15 04:18:52;;;;;;;4.55;2.65;;;;;;;16.35;58.35;93817.19;5146022;27;20254;-70
2022/09/15 04:21:20;;;;;;;9.70;3.05;;;;;;;16.38;58.11;93807.66;5145972;27;20026;-71
2022/09/15 04:23:49;;;;;;;6.68;2.65;;;;;;;16.39;57.86;93793.09;5145872;27;20259;-70
2022/09/15 04:26:30;;;;;;;8.90;2.85;;;;;;;16.43;56.88;93802.78;5145696;27;20017;-70
2022/09/15 04:28:56;;;;;;;16.08;4.15;;;;;;;16.48;57.74;93809.78;5145606;27;20034;-71
2022/09/15 04:31:22;;;;;;;11.48;3.50;;;;;;;16.50;57.53;93794.06;5145238;27;20335;-71
2022/09/15 04:33:51;;;;;;;6.30;2.85;;;;;;;16.52;57.00;93797.19;5145529;27;20027;-72
2022/09/15 04:36:19;;;;;;;7.15;2.45;;;;;;;16.57;56.72;93796.94;5145501;27;20027;-72
2022/09/15 04:38:46;;;;;;;8.80;2.65;;;;;;;16.65;57.13;93801.34;5145443;27;20112;-71
2022/09/15 04:41:14;;;;;;;7.18;2.90;;;;;;;16.72;57.67;93797.22;5127252;27;20092;-72
2022/09/15 04:43:43;;;;;;;12.82;3.28;;;;;;;16.73;57.79;93809.53;5145296;27;20019;-71
2022/09/15 04:46:10;;;;;;;9.77;3.47;;;;;;;16.79;58.22;93819.69;5145151;27;20019;-71
2022/09/15 04:48:36;;;;;;;7.97;2.70;;;;;;;16.79;58.09;93806.25;5145193;27;20019;-71
2022/09/15 04:51:10;;;;;;;7.82;2.97;;;;;;;16.77;58.03;93797.75;5145299;27;20098;-71
2022/09/15 04:53:36;;;;;;;9.23;2.67;;;;;;;16.82;57.80;93802.09;5145189;27;20098;-71
2022/09/15 04:56:06;;;;;;;7.05;3.17;;;;;;;16.87;57.17;93799.09;5144374;27;20049;-71
2022/09/15 04:58:43;;;;;;;12.98;2.90;;;;;;;16.95;57.25;93816.19;5144899;27;20023;-71
2022/09/15 05:01:13;;;;;;;9.32;3.10;;;;;;;17.02;56.95;93808.25;5143986;27;20019;-71
2022/09/15 05:03:40;;;;;;;9.75;2.50;;;;;;;17.11;55.48;93803.41;5145049;27;20116;-71
2022/09/15 05:06:08;;;;;;;6.43;2.47;;;;;;;17.21;55.25;93807.47;5144753;27;20028;-71
2022/09/15 05:08:34;;;;;;;12.55;2.83;;;;;;;17.30;54.79;93808.03;5144376;27;20237;-71
2022/09/15 05:11:02;;;;;;;7.95;2.33;;;;;;;17.37;54.94;93799.28;5144668;27;20026;-72
2022/09/15 05:13:27;;;;;;;9.93;2.65;;;;;;;17.47;54.21;93803.31;5126377;27;20031;-71
2022/09/15 05:15:53;;;;;;;7.13;2.40;;;;;;;17.56;54.48;93803.84;5144720;27;20019;-72
2022/09/15 05:18:18;;;;;;;12.18;2.55;;;;;;;17.64;53.85;93803.63;5144818;27;20095;-72
2022/09/15 05:20:44;;;;;;;8.63;2.90;;;;;;;17.75;53.95;93803.03;5144689;27;20023;-72
2022/09/15 05:23:09;;;;;;;11.70;3.65;;;;;;;17.82;53.78;93795.84;5144463;27;20019;-72
2022/09/15 05:25:35;;;;;;;11.98;3.00;;;;;;;17.88;53.29;93803.66;5126169;27;20031;-72
2022/09/15 05:28:01;;;;;;;15.13;3.45;;;;;;;17.95;52.80;93791.09;5144290;27;20380;-72
2022/09/15 05:30:26;;;;;;;18.17;3.95;;;;;;;18.02;52.93;93801.19;5144367;27;20050;-71
2022/09/15 05:32:52;;;;;;;12.32;3.20;;;;;;;18.08;52.86;93791.66;5144395;27;20268;-71
2022/09/15 05:35:18;;;;;;;12.93;3.03;;;;;;;18.14;52.50;93784.81;5144215;27;20096;-71
2022/09/15 05:37:43;;;;;;;13.70;3.17;;;;;;;18.22;52.52;93788.41;5144351;27;20208;-71
2022/09/15 05:40:09;;;;;;;16.15;3.30;;;;;;;18.28;53.12;93789.66;5125904;27;20015;-71
2022/09/15 05:42:34;;;;;;;10.10;2.88;;;;;;;18.35;53.52;93784.34;5144204;27;20112;-72
2022/09/15 05:44:59;;;;;;;26.65;7.78;;;;;;;18.43;53.38;93771.72;5144163;27;20090;-71
2022/09/15 05:47:25;;;;;;;17.77;5.60;;;;;;;18.49;52.39;93770.28;5144048;27;20019;-71
2022/09/15 05:49:52;;;;;;;10.50;3.97;;;;;;;18.58;51.78;93759.19;5144016;27;20030;-71
2022/09/15 05:52:18;;;;;;;10.63;3.63;;;;;;;18.68;52.10;93768.59;5143954;27;20015;-71
2022/09/15 05:54:43;;;;;;;20.60;3.67;;;;;;;18.76;52.42;93768.31;5144170;27;20340;-71
2022/09/15 05:57:09;;;;;;;14.80;5.57;;;;;;;18.84;51.92;93777.31;5143866;27;20086;-71
2022/09/15 05:59:34;;;;;;;11.27;3.40;;;;;;;18.93;50.60;93775.13;5143678;27;20303;-71
2022/09/15 06:02:00;;;;;;;12.27;2.85;;;;;;;19.02;49.84;93767.50;5143864;27;20015;-71
2022/09/15 06:04:26;;;;;;;10.27;2.58;;;;;;;19.10;49.36;93757.53;5144001;27;20023;-71
2022/09/15 06:06:51;;;;;;;9.18;2.45;;;;;;;19.19;48.65;93755.34;5143823;27;20119;-71
2022/09/15 06:09:17;;;;;;;11.15;2.70;;;;;;;19.31;48.91;93762.38;5143799;27;20080;-71
2022/09/15 06:11:43;;;;;;;10.15;2.88;;;;;;;19.39;50.07;93755.91;5143926;27;20059;-79
2022/09/15 06:14:12;;;;;;;9.05;2.53;;;;;;;19.49;49.35;93753.69;5144151;27;20051;-79
2022/09/15 06:16:37;;;;;;;21.48;3.58;;;;;;;19.60;48.77;93758.06;5144269;27;20034;-79
2022/09/15 06:19:03;;;;;;;17.98;2.80;;;;;;;19.70;47.82;93767.41;5143397;27;20090;-79
2022/09/15 06:21:30;;;;;;;16.02;3.33;;;;;;;19.80;47.77;93780.28;5144112;27;20086;-79
2022/09/15 06:23:58;;;;;;;17.45;3.03;;;;;;;19.90;48.05;93786.91;5143851;27;20216;-79
2022/09/15 06:26:24;;;;;;;22.02;3.00;;;;;;;19.98;47.47;93776.94;5143975;27;20094;-81
2022/09/15 06:28:55;;;;;;;9.40;2.70;;;;;;;20.07;46.87;93774.69;5144352;28;20290;-80
2022/09/15 06:31:21;;;;;;;16.58;3.13;;;;;;;20.14;47.60;93755.03;5143752;28;20086;-79
2022/09/15 06:33:51;;;;;;;10.20;3.10;;;;;;;20.23;47.66;93756.25;5143884;27;20123;-80
2022/09/15 06:36:19;;;;;;;10.80;3.40;;;;;;;20.34;47.00;93766.38;5143719;27;20329;-80
2022/09/15 06:38:45;;;;;;;11.30;3.20;;;;;;;20.37;46.42;93763.69;5144047;27;20043;-80
2022/09/15 06:41:11;;;;;;;14.90;3.47;;;;;;;20.35;45.70;93765.22;5143680;28;20015;-79
2022/09/15 06:43:37;;;;;;;11.35;3.10;;;;;;;20.44;45.79;93752.13;5143623;28;20259;-79
2022/09/15 06:46:08;;;;;;;19.38;3.15;;;;;;;20.55;45.63;93758.38;5143857;27;20023;-80
2022/09/15 06:48:37;;;;;;;17.50;3.45;;;;;;;20.67;45.18;93767.38;5143676;28;20015;-79
2022/09/15 06:51:04;;;;;;;17.55;2.97;;;;;;;20.76;45.08;93765.88;5143533;28;20015;-80
2022/09/15 06:53:31;;;;;;;14.73;3.13;;;;;;;20.84;45.05;93770.16;5143434;27;20016;-79
2022/09/15 06:56:10;;;;;;;15.13;4.28;;;;;;;20.94;45.18;93770.56;5143972;28;20312;-79
2022/09/15 06:58:38;;;;;;;8.90;2.72;;;;;;;21.00;44.80;93766.34;5143619;28;20027;-82
2022/09/15 07:01:08;;;;;;;11.77;2.63;;;;;;;21.03;44.32;93776.44;5143194;28;20086;-84
2022/09/15 07:03:35;;;;;;;11.85;3.58;;;;;;;21.08;44.56;93764.44;5142926;28;20022;-81
2022/09/15 07:06:02;;;;;;;7.70;2.58;;;;;;;21.15;43.24;93780.75;5143356;27;20023;-83
2022/09/15 07:08:27;;;;;;;8.02;2.85;;;;;;;21.14;43.59;93785.34;5125277;28;20217;-81
2022/09/15 07:10:53;;;;;;;11.00;2.80;;;;;;;21.19;43.17;93787.72;5143508;28;20019;-83
2022/09/15 07:13:19;;;;;;;17.75;2.95;;;;;;;21.29;44.79;93807.88;5143612;27;20313;-84
2022/09/15 07:16:06;;;;;;;7.97;2.60;;;;;;;21.34;44.72;93807.50;5143751;27;20023;-82
2022/09/15 07:18:32;;;;;;;12.25;2.95;;;;;;;21.38;43.38;93804.81;5143294;27;20206;-83
2022/09/15 07:20:59;;;;;;;16.35;4.38;;;;;;;21.49;43.32;93799.44;5143488;27;20057;-81
2022/09/15 07:23:25;;;;;;;13.48;4.03;;;;;;;21.59;43.47;93809.53;5125595;28;20213;-85
2022/09/15 07:25:51;;;;;;;7.03;2.97;;;;;;;21.69;43.00;93824.28;5143777;28;20031;-79
2022/09/15 07:28:16;;;;;;;7.95;2.58;;;;;;;21.73;42.65;93833.97;5143935;28;20030;-79
2022/09/15 07:30:43;;;;;;;10.25;3.03;;;;;;;21.82;42.69;93828.97;5144923;27;20043;-81
2022/09/15 07:33:10;;;;;;;13.55;4.45;;;;;;;21.93;42.83;93833.63;5147146;27;20034;-84
2022/09/15 07:35:42;;;;;;;10.63;2.97;;;;;;;21.99;42.22;93832.84;5147520;27;20027;-81
2022/09/15 07:38:07;;;;;;;22.67;3.60;;;;;;;22.03;42.71;93843.72;5147333;27;20019;-85
2022/09/15 07:40:33;;;;;;;17.08;3.47;;;;;;;22.09;43.18;93850.31;5147429;27;20050;-81
2022/09/15 07:42:58;;;;;;;11.80;3.58;;;;;;;22.15;43.62;93846.06;5147423;27;20242;-82
2022/09/15 07:45:24;;;;;;;13.45;3.20;;;;;;;22.19;42.72;93835.97;5146962;27;20026;-82
2022/09/15 07:47:49;;;;;;;13.75;3.47;;;;;;;22.24;42.50;93838.31;5146859;27;20019;-81
2022/09/15 07:50:15;;;;;;;14.00;3.45;;;;;;;22.31;42.32;93836.75;5147273;27;20046;-85
2022/09/15 07:53:06;;;;;;;15.02;3.72;;;;;;;22.40;42.97;93823.59;5146531;27;20086;-83
2022/09/15 07:55:31;;;;;;;11.75;4.32;;;;;;;22.40;42.34;93829.78;5147084;27;20217;-81
2022/09/15 07:57:58;;;;;;;10.85;3.20;;;;;;;22.48;42.54;93816.97;5146724;27;20023;-81
2022/09/15 08:00:24;;;;;;;9.88;2.78;;;;;;;22.56;42.30;93821.25;5146703;27;20205;-82
2022/09/15 08:02:49;;;;;;;22.83;3.85;;;;;;;22.62;41.64;93816.97;5146627;27;20019;-81
2022/09/15 08:05:14;;;;;;;18.50;4.05;;;;;;;22.68;41.49;93817.34;5146763;27;20054;-82
2022/09/15 08:07:40;;;;;;;14.23;3.60;;;;;;;22.78;41.74;93821.97;5146604;27;20352;-80
2022/09/15 08:10:06;;;;;;;18.75;3.50;;;;;;;22.87;41.86;93821.56;5146797;27;20023;-80
2022/09/15 08:12:31;;;;;;;17.50;3.90;;;;;;;22.96;41.50;93829.28;5146425;27;20213;-80
2022/09/15 08:14:57;;;;;;;22.67;3.72;;;;;;;22.96;41.60;93821.94;5146154;27;20229;-82
2022/09/15 08:17:22;;;;;;;13.25;3.30;;;;;;;23.07;41.07;93821.16;5146770;27;20071;-84
2022/09/15 08:19:47;;;;;;;16.45;3.53;;;;;;;23.21;40.80;93818.41;5146336;27;20011;-83
2022/09/15 08:22:13;;;;;;;15.25;3.45;;;;;;;23.22;40.74;93819.94;5146177;27;20323;-78
2022/09/15 08:24:38;;;;;;;14.30;3.50;;;;;;;23.23;40.94;93816.06;5146163;27;20019;-79
2022/09/15 08:27:04;;;;;;;25.08;3.95;;;;;;;23.24;41.21;93814.88;5145950;27;20019;-79
2022/09/15 08:29:29;;;;;;;16.20;3.03;;;;;;;23.37;40.73;93810.56;5145860;27;20027;-80
2022/09/15 08:31:55;;;;;;;16.73;3.58;;;;;;;23.51;40.78;93798.84;5146119;27;20039;-85
2022/09/15 08:34:20;;;;;;;14.70;3.75;;;;;;;23.59;40.69;93802.25;5146392;27;20030;-84
2022/09/15 08:36:46;;;;;;;57.20;9.82;;;;;;;23.71;41.01;93798.31;5145967;27;20090;-84
2022/09/15 08:39:11;;;;;;;28.65;5.90;;;;;;;23.79;40.88;93800.66;5146144;27;20021;-83
2022/09/15 08:41:37;;;;;;;13.38;3.15;;;;;;;23.89;41.01;93787.34;5145372;27;20333;-82
2022/09/15 08:44:17;;;;;;;12.88;3.10;;;;;;;24.03;40.53;93790.72;5145486;27;20038;-85
2022/09/15 08:47:14;;;;;;;12.68;3.25;;;;;;;24.17;39.80;93780.91;5146155;27;20218;-82
2022/09/15 08:50:06;;;;;;;16.33;2.70;;;;;;;24.19;39.89;93779.34;5145727;27;20075;-82
2022/09/15 08:53:05;;;;;;;10.85;2.75;;;;;;;24.29;39.63;93785.88;5145826;27;20085;-83
2022/09/15 08:55:43;;;;;;;17.05;3.38;;;;;;;24.42;39.24;93776.03;5130401;27;20023;-80
2022/09/15 08:58:17;;;;;;;14.57;2.88;;;;;;;24.51;38.72;93772.09;5145838;27;20309;-78
2022/09/15 09:00:45;;;;;;;12.68;3.25;;;;;;;24.60;38.43;93775.09;5145616;27;20053;-83
2022/09/15 09:03:20;;;;;;;16.55;2.85;;;;;;;24.66;38.31;93775.44;5145199;27;20026;-82
2022/09/15 09:05:54;;;;;;;18.63;3.33;;;;;;;24.74;38.42;93772.22;5145263;27;20019;-83
2022/09/15 09:08:27;;;;;;;23.58;3.60;;;;;;;24.90;38.65;93760.78;5144801;27;20054;-82
2022/09/15 09:10:59;;;;;;;13.88;3.83;;;;;;;25.01;38.52;93766.88;5144488;27;20266;-82
2022/09/15 09:13:34;;;;;;;7.97;3.10;;;;;;;25.10;38.14;93760.94;5145174;27;20019;-82
2022/09/15 09:16:14;;;;;;;8.10;2.83;;;;;;;25.25;37.38;93761.56;5144804;27;20221;-82
2022/09/15 09:18:58;;;;;;;21.15;3.10;;;;;;;25.39;38.03;93757.88;5126471;27;20030;-82
2022/09/15 09:21:29;;;;;;;18.92;3.65;;;;;;;25.51;36.01;93765.50;5144808;27;20015;-82
2022/09/15 09:24:07;;;;;;;17.33;3.53;;;;;;;25.69;35.40;93754.34;5144492;27;20229;-82
2022/09/15 09:26:35;;;;;;;10.63;3.35;;;;;;;25.78;35.35;93756.53;5144741;27;20023;-82
2022/09/15 09:29:05;;;;;;;10.02;2.83;;;;;;;25.88;35.19;93755.59;5144722;27;20022;-83
2022/09/15 09:31:30;;;;;;;15.13;3.25;;;;;;;25.99;35.24;93761.72;5126345;27;20046;-83
2022/09/15 09:34:13;;;;;;;16.80;4.03;;;;;;;26.07;35.69;93739.75;5144478;27;20030;-83
2022/09/15 09:36:39;;;;;;;11.15;3.25;;;;;;;26.17;36.23;93741.53;5144590;27;20015;-83
2022/09/15 09:39:05;;;;;;;20.98;3.17;;;;;;;26.25;35.89;93728.53;5126228;27;20026;-84
2022/09/15 09:41:35;;;;;;;10.68;3.65;;;;;;;26.33;34.97;93719.78;5144613;27;20019;-86
2022/09/15 09:44:03;;;;;;;14.75;2.80;;;;;;;26.41;34.59;93728.63;5144477;27;20213;-87
2022/09/15 09:46:30;;;;;;;10.27;3.25;;;;;;;26.49;35.43;93726.53;5144416;27;20090;-86
2022/09/15 09:49:04;;;;;;;18.80;4.15;;;;;;;26.58;35.35;93722.09;5144419;27;20324;-86
2022/09/15 09:51:52;;;;;;;16.95;3.90;;;;;;;26.63;34.55;93736.47;5144286;27;20228;-85
2022/09/15 09:54:23;;;;;;;9.98;3.85;;;;;;;26.72;35.45;93742.16;5143146;27;20027;-85
2022/09/15 09:56:51;;;;;;;20.73;3.97;;;;;;;26.74;35.30;93742.50;5144196;27;20027;-86
2022/09/15 09:59:40;;;;;;;15.18;3.35;;;;;;;26.88;35.59;93731.28;5144509;27;20049;-84
2022/09/15 10:02:44;;;;;;;14.63;3.30;;;;;;;26.97;36.05;93733.50;5144013;27;20015;-84
2022/09/15 10:05:10;;;;;;;27.92;3.75;;;;;;;27.08;35.49;93733.25;5143635;27;20022;-85
2022/09/15 10:07:40;;;;;;;16.58;3.58;;;;;;;27.14;35.17;93739.78;5142567;27;20038;-81
2022/09/15 10:10:16;;;;;;;14.63;3.63;;;;;;;27.21;34.07;93734.94;5142900;27;20027;-82
2022/09/15 10:12:42;;;;;;;10.82;3.28;;;;;;;27.28;36.33;93734.03;5142842;27;20023;-81
2022/09/15 10:15:22;;;;;;;10.95;3.67;;;;;;;27.38;37.86;93732.28;5142132;27;20050;-81
2022/09/15 10:17:49;;;;;;;13.90;3.75;;;;;;;27.44;34.60;93733.31;5143360;27;20019;-81
2022/09/15 10:20:31;;;;;;;12.68;3.30;;;;;;;27.54;35.58;93724.09;5142429;27;20015;-81
2022/09/15 10:23:17;;;;;;;20.63;3.63;;;;;;;27.66;36.32;93728.13;5142155;27;20023;-81
2022/09/15 10:25:44;;;;;;;10.98;4.07;;;;;;;27.77;35.13;93727.88;5142078;27;20083;-81
2022/09/15 10:28:15;;;;;;;18.40;3.10;;;;;;;27.93;35.66;93722.44;5141964;27;20026;-81
2022/09/15 10:30:58;;;;;;;9.30;3.77;;;;;;;28.07;34.67;93729.56;5141884;27;20041;-81
2022/09/15 10:33:36;;;;;;;47.20;6.97;;;;;;;28.17;33.30;93725.78;5142112;27;20458;-82
2022/09/15 10:36:28;;;;;;;17.33;4.13;;;;;;;28.36;34.08;93715.16;5143530;28;20305;-81
2022/09/15 10:39:05;;;;;;;15.80;5.57;;;;;;;28.53;33.64;93710.41;5134971;28;20031;-81
2022/09/15 10:41:34;;;;;;;12.25;3.28;;;;;;;28.61;32.30;93711.78;5143440;27;20015;-81
2022/09/15 10:44:27;;;;;;;17.15;3.22;;;;;;;28.82;32.48;93713.16;5143733;27;20019;-81
2022/09/15 10:47:15;;;;;;;15.45;3.92;;;;;;;28.99;32.02;93709.16;5143489;27;20050;-82
2022/09/15 10:49:55;;;;;;;11.90;2.90;;;;;;;29.19;31.32;93700.03;5143521;27;20277;-81
2022/09/15 10:52:30;;;;;;;14.38;3.38;;;;;;;29.38;31.61;93701.03;5143553;28;20104;-81
2022/09/15 10:55:10;;;;;;;21.63;3.78;;;;;;;29.52;31.23;93699.81;5143295;28;20023;-82
2022/09/15 10:57:44;;;;;;;14.10;3.20;;;;;;;29.44;29.97;93691.03;5143738;28;20019;-82
2022/09/15 11:00:19;;;;;;;13.23;3.03;;;;;;;29.55;32.57;93693.44;5143585;27;20051;-81
2022/09/15 11:03:15;;;;;;;16.35;3.75;;;;;;;29.71;31.12;93690.59;5143574;28;20019;-81
2022/09/15 11:06:01;;;;;;;9.57;3.20;;;;;;;29.95;31.45;93685.53;5144849;27;20041;-82
2022/09/15 11:08:36;;;;;;;14.32;3.63;;;;;;;30.06;30.53;93678.91;5147476;27;20039;-82
2022/09/15 11:11:20;;;;;;;12.02;3.45;;;;;;;30.15;30.45;93668.78;5147272;27;20027;-82
2022/09/15 11:14:10;;;;;;;24.13;3.90;;;;;;;30.18;29.77;93662.38;5147235;27;20137;-81
2022/09/15 11:16:45;;;;;;;12.55;3.70;;;;;;;30.24;29.32;93668.09;5147183;27;20046;-82
2022/09/15 11:19:30;;;;;;;11.13;3.05;;;;;;;30.26;29.75;93662.16;5146973;27;20030;-82
2022/09/15 11:22:06;;;;;;;19.60;3.50;;;;;;;30.28;30.01;93670.72;5147177;27;20019;-82
2022/09/15 11:24:34;;;;;;;14.32;4.03;;;;;;;30.27;29.37;93664.47;5147005;27;20056;-82
2022/09/15 11:27:13;;;;;;;11.88;3.03;;;;;;;30.24;28.54;93659.09;5146997;27;20023;-82
2022/09/15 11:29:53;;;;;;;16.23;3.10;;;;;;;30.19;28.63;93650.19;5146787;27;20098;-81
2022/09/15 11:32:31;;;;;;;8.80;2.55;;;;;;;30.15;29.73;93649.56;5147159;27;20026;-82
2022/09/15 11:35:25;;;;;;;16.67;3.50;;;;;;;30.13;29.48;93653.97;5146769;27;20023;-81
2022/09/15 11:37:55;;;;;;;8.13;2.65;;;;;;;30.11;29.54;93650.91;5146298;27;20050;-81
2022/09/15 11:40:29;;;;;;;10.82;3.17;;;;;;;30.16;29.41;93645.56;5146766;27;20015;-81
2022/09/15 11:42:59;;;;;;;9.00;3.45;;;;;;;30.20;29.28;93645.47;5146962;27;20308;-82
2022/09/15 11:45:28;;;;;;;18.08;3.20;;;;;;;30.26;29.46;93640.19;5146880;27;20069;-82
2022/09/15 11:48:05;;;;;;;8.73;2.95;;;;;;;30.35;29.22;93643.03;5146606;27;20368;-81